sensor_id;sensor_type;location;lat;lon;timestamp;P1;durP1;ratioP1;P2;durP2;ratioP2
3133;SDS011;1577;49.912;10.924;2022-07-19T00:00:40;2.30;;;1.40;;
3133;SDS011;1577;49.912;10.924;2022-07-19T00:03:11;1.83;;;1.10;;
3133;SDS011;1577;49.912;10.924;2022-07-19T00:05:37;4.00;;;1.60;;
3133;SDS011;1577;49.912;10.924;2022-07-19T00:08:03;2.27;;;1.37;;
3133;SDS011;1577;49.912;10.924;2022-07-19T00:10:29;2.27;;;1.53;;
3133;SDS011;1577;49.912;10.924;2022-07-19T00:12:55;2.03;;;1.23;;
3133;SDS011;1577;49.912;10.924;2022-07-19T00:15:21;3.40;;;1.50;;
3133;SDS011;1577;49.912;10.924;2022-07-19T00:17:47;3.03;;;2.27;;
3133;SDS011;1577;49.912;10.924;2022-07-19T00:20:14;2.10;;;1.50;;
3133;SDS011;1577;49.912;10.924;2022-07-19T00:22:41;2.43;;;1.47;;
3133;SDS011;1577;49.912;10.924;2022-07-19T00:25:07;1.80;;;1.43;;
3133;SDS011;1577;49.912;10.924;2022-07-19T00:27:33;2.87;;;1.50;;
3133;SDS011;1577;49.912;10.924;2022-07-19T00:29:59;4.57;;;1.73;;
3133;SDS011;1577;49.912;10.924;2022-07-19T00:32:25;3.00;;;1.80;;
3133;SDS011;1577;49.912;10.924;2022-07-19T00:34:51;2.57;;;2.10;;
3133;SDS011;1577;49.912;10.924;2022-07-19T00:37:17;3.53;;;1.73;;
3133;SDS011;1577;49.912;10.924;2022-07-19T00:39:43;5.27;;;1.83;;
3133;SDS011;1577;49.912;10.924;2022-07-19T00:42:09;2.43;;;1.50;;
3133;SDS011;1577;49.912;10.924;2022-07-19T00:44:35;4.63;;;2.03;;
3133;SDS011;1577;49.912;10.924;2022-07-19T00:47:01;2.00;;;1.60;;
3133;SDS011;1577;49.912;10.924;2022-07-19T00:49:28;3.00;;;1.67;;
3133;SDS011;1577;49.912;10.924;2022-07-19T00:51:54;2.10;;;1.50;;
3133;SDS011;1577;49.912;10.924;2022-07-19T00:54:21;2.50;;;1.80;;
3133;SDS011;1577;49.912;10.924;2022-07-19T00:56:49;2.03;;;1.60;;
3133;SDS011;1577;49.912;10.924;2022-07-19T00:59:15;2.73;;;1.60;;
3133;SDS011;1577;49.912;10.924;2022-07-19T01:01:42;2.93;;;1.70;;
3133;SDS011;1577;49.912;10.924;2022-07-19T01:04:09;2.07;;;1.70;;
3133;SDS011;1577;49.912;10.924;2022-07-19T01:06:35;3.70;;;1.97;;
3133;SDS011;1577;49.912;10.924;2022-07-19T01:09:02;2.87;;;2.10;;
3133;SDS011;1577;49.912;10.924;2022-07-19T01:11:28;3.33;;;1.70;;
3133;SDS011;1577;49.912;10.924;2022-07-19T01:13:54;2.87;;;1.73;;
3133;SDS011;1577;49.912;10.924;2022-07-19T01:16:20;2.37;;;1.50;;
3133;SDS011;1577;49.912;10.924;2022-07-19T01:18:47;6.00;;;1.60;;
3133;SDS011;1577;49.912;10.924;2022-07-19T01:21:24;2.73;;;2.10;;
3133;SDS011;1577;49.912;10.924;2022-07-19T01:23:51;3.80;;;1.73;;
3133;SDS011;1577;49.912;10.924;2022-07-19T01:26:17;4.73;;;1.73;;
3133;SDS011;1577;49.912;10.924;2022-07-19T01:28:44;2.07;;;1.40;;
3133;SDS011;1577;49.912;10.924;2022-07-19T01:31:10;3.97;;;1.80;;
3133;SDS011;1577;49.912;10.924;2022-07-19T01:33:40;3.33;;;2.20;;
3133;SDS011;1577;49.912;10.924;2022-07-19T01:36:06;1.70;;;1.60;;
3133;SDS011;1577;49.912;10.924;2022-07-19T01:38:32;4.50;;;1.60;;
3133;SDS011;1577;49.912;10.924;2022-07-19T01:40:58;2.03;;;1.67;;
3133;SDS011;1577;49.912;10.924;2022-07-19T01:43:24;3.50;;;1.70;;
3133;SDS011;1577;49.912;10.924;2022-07-19T01:45:50;2.80;;;1.60;;
3133;SDS011;1577;49.912;10.924;2022-07-19T01:48:18;4.93;;;1.60;;
3133;SDS011;1577;49.912;10.924;2022-07-19T01:50:44;1.60;;;1.40;;
3133;SDS011;1577;49.912;10.924;2022-07-19T01:53:10;2.17;;;1.50;;
3133;SDS011;1577;49.912;10.924;2022-07-19T01:55:36;3.73;;;1.77;;
3133;SDS011;1577;49.912;10.924;2022-07-19T01:58:02;2.17;;;1.77;;
3133;SDS011;1577;49.912;10.924;2022-07-19T02:00:29;5.50;;;1.93;;
3133;SDS011;1577;49.912;10.924;2022-07-19T02:02:55;2.53;;;1.60;;
3133;SDS011;1577;49.912;10.924;2022-07-19T02:05:21;3.70;;;2.00;;
3133;SDS011;1577;49.912;10.924;2022-07-19T02:07:48;2.57;;;1.50;;
3133;SDS011;1577;49.912;10.924;2022-07-19T02:10:14;3.60;;;1.53;;
3133;SDS011;1577;49.912;10.924;2022-07-19T02:12:40;3.50;;;1.87;;
3133;SDS011;1577;49.912;10.924;2022-07-19T02:15:06;3.43;;;1.87;;
3133;SDS011;1577;49.912;10.924;2022-07-19T02:17:33;3.60;;;1.60;;
3133;SDS011;1577;49.912;10.924;2022-07-19T02:19:59;3.73;;;1.70;;
3133;SDS011;1577;49.912;10.924;2022-07-19T02:22:25;2.30;;;1.80;;
3133;SDS011;1577;49.912;10.924;2022-07-19T02:24:51;2.57;;;1.93;;
3133;SDS011;1577;49.912;10.924;2022-07-19T02:27:17;3.60;;;2.30;;
3133;SDS011;1577;49.912;10.924;2022-07-19T02:29:44;3.17;;;1.93;;
3133;SDS011;1577;49.912;10.924;2022-07-19T02:32:11;2.40;;;1.70;;
3133;SDS011;1577;49.912;10.924;2022-07-19T02:34:37;3.17;;;1.87;;
3133;SDS011;1577;49.912;10.924;2022-07-19T02:37:03;4.60;;;1.60;;
3133;SDS011;1577;49.912;10.924;2022-07-19T02:39:29;3.37;;;1.60;;
3133;SDS011;1577;49.912;10.924;2022-07-19T02:41:55;2.93;;;1.60;;
3133;SDS011;1577;49.912;10.924;2022-07-19T02:44:21;3.60;;;1.50;;
3133;SDS011;1577;49.912;10.924;2022-07-19T02:46:47;2.57;;;1.60;;
3133;SDS011;1577;49.912;10.924;2022-07-19T02:49:13;3.07;;;2.10;;
3133;SDS011;1577;49.912;10.924;2022-07-19T02:51:39;4.87;;;2.43;;
3133;SDS011;1577;49.912;10.924;2022-07-19T02:54:05;2.50;;;2.00;;
3133;SDS011;1577;49.912;10.924;2022-07-19T02:56:31;1.73;;;1.60;;
3133;SDS011;1577;49.912;10.924;2022-07-19T02:58:57;3.63;;;1.77;;
3133;SDS011;1577;49.912;10.924;2022-07-19T03:01:23;3.00;;;1.93;;
3133;SDS011;1577;49.912;10.924;2022-07-19T03:03:49;3.13;;;2.10;;
3133;SDS011;1577;49.912;10.924;2022-07-19T03:06:17;4.13;;;1.73;;
3133;SDS011;1577;49.912;10.924;2022-07-19T03:08:44;2.23;;;1.40;;
3133;SDS011;1577;49.912;10.924;2022-07-19T03:11:10;4.10;;;1.63;;
3133;SDS011;1577;49.912;10.924;2022-07-19T03:13:37;3.20;;;1.67;;
3133;SDS011;1577;49.912;10.924;2022-07-19T03:16:03;2.00;;;1.80;;
3133;SDS011;1577;49.912;10.924;2022-07-19T03:18:29;2.70;;;2.10;;
3133;SDS011;1577;49.912;10.924;2022-07-19T03:20:55;2.53;;;1.80;;
3133;SDS011;1577;49.912;10.924;2022-07-19T03:23:23;2.60;;;1.90;;
3133;SDS011;1577;49.912;10.924;2022-07-19T03:25:49;2.50;;;1.70;;
3133;SDS011;1577;49.912;10.924;2022-07-19T03:28:15;2.23;;;1.77;;
3133;SDS011;1577;49.912;10.924;2022-07-19T03:30:41;5.40;;;2.03;;
3133;SDS011;1577;49.912;10.924;2022-07-19T03:33:07;2.30;;;2.00;;
3133;SDS011;1577;49.912;10.924;2022-07-19T03:35:33;2.90;;;1.97;;
3133;SDS011;1577;49.912;10.924;2022-07-19T03:37:59;3.87;;;1.80;;
3133;SDS011;1577;49.912;10.924;2022-07-19T03:40:26;2.50;;;2.17;;
3133;SDS011;1577;49.912;10.924;2022-07-19T03:42:52;2.07;;;1.30;;
3133;SDS011;1577;49.912;10.924;2022-07-19T03:45:18;1.83;;;1.40;;
3133;SDS011;1577;49.912;10.924;2022-07-19T03:47:44;2.10;;;1.73;;
3133;SDS011;1577;49.912;10.924;2022-07-19T03:50:10;2.40;;;1.80;;
3133;SDS011;1577;49.912;10.924;2022-07-19T03:52:36;3.60;;;2.00;;
3133;SDS011;1577;49.912;10.924;2022-07-19T03:55:02;3.17;;;2.00;;
3133;SDS011;1577;49.912;10.924;2022-07-19T03:57:28;2.47;;;1.63;;
3133;SDS011;1577;49.912;10.924;2022-07-19T03:59:54;3.37;;;2.07;;
3133;SDS011;1577;49.912;10.924;2022-07-19T04:02:20;3.23;;;1.63;;
3133;SDS011;1577;49.912;10.924;2022-07-19T04:04:46;3.27;;;1.70;;
3133;SDS011;1577;49.912;10.924;2022-07-19T04:07:12;4.60;;;2.10;;
3133;SDS011;1577;49.912;10.924;2022-07-19T04:09:38;3.27;;;1.87;;
3133;SDS011;1577;49.912;10.924;2022-07-19T04:12:04;4.33;;;1.70;;
3133;SDS011;1577;49.912;10.924;2022-07-19T04:14:30;3.03;;;1.63;;
3133;SDS011;1577;49.912;10.924;2022-07-19T04:16:56;7.03;;;2.53;;
3133;SDS011;1577;49.912;10.924;2022-07-19T04:19:22;3.40;;;2.30;;
3133;SDS011;1577;49.912;10.924;2022-07-19T04:21:48;3.70;;;1.93;;
3133;SDS011;1577;49.912;10.924;2022-07-19T04:24:14;4.30;;;2.13;;
3133;SDS011;1577;49.912;10.924;2022-07-19T04:26:40;7.37;;;2.10;;
3133;SDS011;1577;49.912;10.924;2022-07-19T04:29:06;4.33;;;2.30;;
3133;SDS011;1577;49.912;10.924;2022-07-19T04:31:32;2.70;;;1.93;;
3133;SDS011;1577;49.912;10.924;2022-07-19T04:33:58;3.13;;;1.93;;
3133;SDS011;1577;49.912;10.924;2022-07-19T04:36:24;4.03;;;2.67;;
3133;SDS011;1577;49.912;10.924;2022-07-19T04:38:50;3.67;;;2.97;;
3133;SDS011;1577;49.912;10.924;2022-07-19T04:41:16;4.83;;;3.60;;
3133;SDS011;1577;49.912;10.924;2022-07-19T04:43:42;3.20;;;2.30;;
3133;SDS011;1577;49.912;10.924;2022-07-19T04:46:08;3.17;;;2.23;;
3133;SDS011;1577;49.912;10.924;2022-07-19T04:48:34;6.90;;;1.90;;
3133;SDS011;1577;49.912;10.924;2022-07-19T04:51:00;4.93;;;1.80;;
3133;SDS011;1577;49.912;10.924;2022-07-19T04:53:26;5.80;;;2.60;;
3133;SDS011;1577;49.912;10.924;2022-07-19T04:55:52;7.80;;;2.10;;
3133;SDS011;1577;49.912;10.924;2022-07-19T04:58:18;4.20;;;2.00;;
3133;SDS011;1577;49.912;10.924;2022-07-19T05:00:44;2.80;;;1.80;;
3133;SDS011;1577;49.912;10.924;2022-07-19T05:03:10;4.70;;;1.73;;
3133;SDS011;1577;49.912;10.924;2022-07-19T05:05:36;2.43;;;1.70;;
3133;SDS011;1577;49.912;10.924;2022-07-19T05:08:02;2.50;;;1.63;;
3133;SDS011;1577;49.912;10.924;2022-07-19T05:10:28;3.57;;;1.73;;
3133;SDS011;1577;49.912;10.924;2022-07-19T05:12:54;4.53;;;2.13;;
3133;SDS011;1577;49.912;10.924;2022-07-19T05:15:20;2.77;;;2.07;;
3133;SDS011;1577;49.912;10.924;2022-07-19T05:17:46;6.80;;;2.37;;
3133;SDS011;1577;49.912;10.924;2022-07-19T05:20:12;2.80;;;1.97;;
3133;SDS011;1577;49.912;10.924;2022-07-19T05:22:40;6.83;;;2.17;;
3133;SDS011;1577;49.912;10.924;2022-07-19T05:25:07;3.60;;;2.27;;
3133;SDS011;1577;49.912;10.924;2022-07-19T05:27:34;2.80;;;1.73;;
3133;SDS011;1577;49.912;10.924;2022-07-19T05:30:00;2.60;;;2.27;;
3133;SDS011;1577;49.912;10.924;2022-07-19T05:32:26;2.23;;;1.67;;
3133;SDS011;1577;49.912;10.924;2022-07-19T05:34:52;2.20;;;1.47;;
3133;SDS011;1577;49.912;10.924;2022-07-19T05:37:18;4.33;;;2.10;;
3133;SDS011;1577;49.912;10.924;2022-07-19T05:39:44;3.80;;;1.90;;
3133;SDS011;1577;49.912;10.924;2022-07-19T05:42:10;2.10;;;1.90;;
3133;SDS011;1577;49.912;10.924;2022-07-19T05:44:36;3.23;;;2.10;;
3133;SDS011;1577;49.912;10.924;2022-07-19T05:47:02;2.27;;;1.50;;
3133;SDS011;1577;49.912;10.924;2022-07-19T05:49:28;2.67;;;2.07;;
3133;SDS011;1577;49.912;10.924;2022-07-19T05:51:54;4.90;;;2.07;;
3133;SDS011;1577;49.912;10.924;2022-07-19T05:54:20;3.87;;;1.80;;
3133;SDS011;1577;49.912;10.924;2022-07-19T05:56:46;2.30;;;1.73;;
3133;SDS011;1577;49.912;10.924;2022-07-19T05:59:12;6.70;;;1.90;;
3133;SDS011;1577;49.912;10.924;2022-07-19T06:01:38;4.20;;;2.03;;
3133;SDS011;1577;49.912;10.924;2022-07-19T06:04:04;4.33;;;1.97;;
3133;SDS011;1577;49.912;10.924;2022-07-19T06:06:31;4.17;;;1.60;;
3133;SDS011;1577;49.912;10.924;2022-07-19T06:08:57;3.53;;;1.90;;
3133;SDS011;1577;49.912;10.924;2022-07-19T06:11:24;2.90;;;1.77;;
3133;SDS011;1577;49.912;10.924;2022-07-19T06:13:50;3.90;;;2.13;;
3133;SDS011;1577;49.912;10.924;2022-07-19T06:16:16;3.90;;;1.83;;
3133;SDS011;1577;49.912;10.924;2022-07-19T06:18:42;5.10;;;2.20;;
3133;SDS011;1577;49.912;10.924;2022-07-19T06:21:09;4.07;;;2.10;;
3133;SDS011;1577;49.912;10.924;2022-07-19T06:23:36;4.17;;;1.93;;
3133;SDS011;1577;49.912;10.924;2022-07-19T06:26:02;2.37;;;1.90;;
3133;SDS011;1577;49.912;10.924;2022-07-19T06:28:28;2.60;;;1.90;;
3133;SDS011;1577;49.912;10.924;2022-07-19T06:30:54;3.90;;;2.40;;
3133;SDS011;1577;49.912;10.924;2022-07-19T06:33:20;3.43;;;2.10;;
3133;SDS011;1577;49.912;10.924;2022-07-19T06:35:46;4.20;;;2.20;;
3133;SDS011;1577;49.912;10.924;2022-07-19T06:38:12;4.17;;;2.03;;
3133;SDS011;1577;49.912;10.924;2022-07-19T06:40:39;2.50;;;2.07;;
3133;SDS011;1577;49.912;10.924;2022-07-19T06:43:05;2.43;;;1.63;;
3133;SDS011;1577;49.912;10.924;2022-07-19T06:45:31;2.57;;;1.60;;
3133;SDS011;1577;49.912;10.924;2022-07-19T06:47:57;2.73;;;1.63;;
3133;SDS011;1577;49.912;10.924;2022-07-19T06:50:23;3.20;;;1.73;;
3133;SDS011;1577;49.912;10.924;2022-07-19T06:52:49;3.20;;;1.63;;
3133;SDS011;1577;49.912;10.924;2022-07-19T06:55:15;3.70;;;1.63;;
3133;SDS011;1577;49.912;10.924;2022-07-19T06:57:41;7.43;;;2.07;;
3133;SDS011;1577;49.912;10.924;2022-07-19T07:00:07;3.07;;;1.93;;
3133;SDS011;1577;49.912;10.924;2022-07-19T07:02:38;2.90;;;1.77;;
3133;SDS011;1577;49.912;10.924;2022-07-19T07:05:04;4.43;;;2.17;;
3133;SDS011;1577;49.912;10.924;2022-07-19T07:07:31;2.20;;;1.50;;
3133;SDS011;1577;49.912;10.924;2022-07-19T07:09:56;4.50;;;1.77;;
3133;SDS011;1577;49.912;10.924;2022-07-19T07:12:23;1.60;;;1.50;;
3133;SDS011;1577;49.912;10.924;2022-07-19T07:14:49;2.10;;;1.57;;
3133;SDS011;1577;49.912;10.924;2022-07-19T07:17:14;2.33;;;1.63;;
3133;SDS011;1577;49.912;10.924;2022-07-19T07:19:40;3.50;;;1.50;;
3133;SDS011;1577;49.912;10.924;2022-07-19T07:22:06;4.60;;;1.80;;
3133;SDS011;1577;49.912;10.924;2022-07-19T07:24:32;3.53;;;1.80;;
3133;SDS011;1577;49.912;10.924;2022-07-19T07:26:58;2.67;;;1.30;;
3133;SDS011;1577;49.912;10.924;2022-07-19T07:29:24;2.70;;;1.77;;
3133;SDS011;1577;49.912;10.924;2022-07-19T07:31:50;1.53;;;1.43;;
3133;SDS011;1577;49.912;10.924;2022-07-19T07:34:16;3.00;;;1.50;;
3133;SDS011;1577;49.912;10.924;2022-07-19T07:36:42;1.40;;;1.30;;
3133;SDS011;1577;49.912;10.924;2022-07-19T07:39:12;3.17;;;1.50;;
3133;SDS011;1577;49.912;10.924;2022-07-19T07:41:38;2.63;;;1.47;;
3133;SDS011;1577;49.912;10.924;2022-07-19T07:44:05;9.47;;;2.27;;
3133;SDS011;1577;49.912;10.924;2022-07-19T07:46:31;4.30;;;1.60;;
3133;SDS011;1577;49.912;10.924;2022-07-19T07:48:57;3.17;;;1.77;;
3133;SDS011;1577;49.912;10.924;2022-07-19T07:51:23;5.77;;;1.50;;
3133;SDS011;1577;49.912;10.924;2022-07-19T07:53:49;3.70;;;1.55;;
3133;SDS011;1577;49.912;10.924;2022-07-19T07:56:15;9.57;;;1.70;;
3133;SDS011;1577;49.912;10.924;2022-07-19T07:58:41;3.85;;;1.50;;
3133;SDS011;1577;49.912;10.924;2022-07-19T08:01:07;1.65;;;1.55;;
3133;SDS011;1577;49.912;10.924;2022-07-19T08:03:33;2.15;;;1.30;;
3133;SDS011;1577;49.912;10.924;2022-07-19T08:05:59;2.50;;;1.45;;
3133;SDS011;1577;49.912;10.924;2022-07-19T08:08:25;2.65;;;1.15;;
3133;SDS011;1577;49.912;10.924;2022-07-19T08:10:52;2.83;;;1.30;;
3133;SDS011;1577;49.912;10.924;2022-07-19T08:13:19;3.45;;;1.20;;
3133;SDS011;1577;49.912;10.924;2022-07-19T08:15:45;1.98;;;1.10;;
3133;SDS011;1577;49.912;10.924;2022-07-19T08:18:11;5.00;;;1.20;;
3133;SDS011;1577;49.912;10.924;2022-07-19T08:20:37;1.27;;;1.17;;
3133;SDS011;1577;49.912;10.924;2022-07-19T08:23:03;1.10;;;1.00;;
3133;SDS011;1577;49.912;10.924;2022-07-19T08:25:29;4.15;;;1.27;;
3133;SDS011;1577;49.912;10.924;2022-07-19T08:27:57;1.27;;;0.90;;
3133;SDS011;1577;49.912;10.924;2022-07-19T08:30:23;1.65;;;0.80;;
3133;SDS011;1577;49.912;10.924;2022-07-19T08:32:49;1.55;;;0.90;;
3133;SDS011;1577;49.912;10.924;2022-07-19T08:35:15;1.42;;;0.90;;
3133;SDS011;1577;49.912;10.924;2022-07-19T08:37:41;1.30;;;0.90;;
3133;SDS011;1577;49.912;10.924;2022-07-19T08:40:07;1.00;;;0.90;;
3133;SDS011;1577;49.912;10.924;2022-07-19T08:42:33;2.25;;;1.00;;
3133;SDS011;1577;49.912;10.924;2022-07-19T08:45:00;1.83;;;0.90;;
3133;SDS011;1577;49.912;10.924;2022-07-19T08:47:27;2.50;;;1.27;;
3133;SDS011;1577;49.912;10.924;2022-07-19T08:49:53;1.10;;;1.00;;
3133;SDS011;1577;49.912;10.924;2022-07-19T08:52:19;2.75;;;1.02;;
3133;SDS011;1577;49.912;10.924;2022-07-19T08:54:47;3.35;;;1.00;;
3133;SDS011;1577;49.912;10.924;2022-07-19T08:57:13;1.33;;;1.00;;
3133;SDS011;1577;49.912;10.924;2022-07-19T08:59:58;1.00;;;0.90;;
3133;SDS011;1577;49.912;10.924;2022-07-19T09:02:24;2.97;;;0.98;;
3133;SDS011;1577;49.912;10.924;2022-07-19T09:04:59;2.35;;;1.10;;
3133;SDS011;1577;49.912;10.924;2022-07-19T09:07:25;2.88;;;0.90;;
3133;SDS011;1577;49.912;10.924;2022-07-19T09:09:52;1.45;;;0.90;;
3133;SDS011;1577;49.912;10.924;2022-07-19T09:12:18;2.55;;;0.95;;
3133;SDS011;1577;49.912;10.924;2022-07-19T09:14:44;2.78;;;1.20;;
3133;SDS011;1577;49.912;10.924;2022-07-19T09:17:18;1.10;;;0.95;;
3133;SDS011;1577;49.912;10.924;2022-07-19T09:19:46;1.75;;;0.95;;
3133;SDS011;1577;49.912;10.924;2022-07-19T09:22:13;2.45;;;0.90;;
3133;SDS011;1577;49.912;10.924;2022-07-19T09:24:40;1.50;;;0.95;;
3133;SDS011;1577;49.912;10.924;2022-07-19T09:27:07;1.58;;;0.98;;
3133;SDS011;1577;49.912;10.924;2022-07-19T09:29:37;2.63;;;1.08;;
3133;SDS011;1577;49.912;10.924;2022-07-19T09:32:14;6.47;;;2.30;;
3133;SDS011;1577;49.912;10.924;2022-07-19T09:34:43;1.92;;;1.00;;
3133;SDS011;1577;49.912;10.924;2022-07-19T09:39:40;1.77;;;0.95;;
3133;SDS011;1577;49.912;10.924;2022-07-19T09:42:10;1.58;;;0.90;;
3133;SDS011;1577;49.912;10.924;2022-07-19T09:44:36;1.00;;;0.90;;
3133;SDS011;1577;49.912;10.924;2022-07-19T09:47:02;1.42;;;1.08;;
3133;SDS011;1577;49.912;10.924;2022-07-19T09:49:28;3.55;;;1.00;;
3133;SDS011;1577;49.912;10.924;2022-07-19T09:51:54;1.88;;;1.10;;
3133;SDS011;1577;49.912;10.924;2022-07-19T09:54:21;2.92;;;1.20;;
3133;SDS011;1577;49.912;10.924;2022-07-19T09:56:48;2.08;;;1.30;;
3133;SDS011;1577;49.912;10.924;2022-07-19T09:59:15;3.72;;;0.93;;
3133;SDS011;1577;49.912;10.924;2022-07-19T10:01:41;1.50;;;1.00;;
3133;SDS011;1577;49.912;10.924;2022-07-19T10:04:12;2.00;;;1.27;;
3133;SDS011;1577;49.912;10.924;2022-07-19T10:06:39;1.87;;;1.00;;
3133;SDS011;1577;49.912;10.924;2022-07-19T10:09:06;2.00;;;0.90;;
3133;SDS011;1577;49.912;10.924;2022-07-19T10:11:32;1.23;;;1.13;;
3133;SDS011;1577;49.912;10.924;2022-07-19T10:13:58;2.90;;;1.30;;
3133;SDS011;1577;49.912;10.924;2022-07-19T10:19:22;1.40;;;1.10;;
3133;SDS011;1577;49.912;10.924;2022-07-19T10:21:48;1.33;;;1.23;;
3133;SDS011;1577;49.912;10.924;2022-07-19T10:24:32;2.30;;;1.20;;
3133;SDS011;1577;49.912;10.924;2022-07-19T10:27:01;2.20;;;1.30;;
3133;SDS011;1577;49.912;10.924;2022-07-19T10:29:27;1.60;;;1.27;;
3133;SDS011;1577;49.912;10.924;2022-07-19T10:32:02;2.33;;;1.20;;
3133;SDS011;1577;49.912;10.924;2022-07-19T10:34:28;1.27;;;1.03;;
3133;SDS011;1577;49.912;10.924;2022-07-19T10:36:54;2.80;;;1.00;;
3133;SDS011;1577;49.912;10.924;2022-07-19T10:39:22;3.67;;;1.10;;
3133;SDS011;1577;49.912;10.924;2022-07-19T10:42:04;1.80;;;1.30;;
3133;SDS011;1577;49.912;10.924;2022-07-19T10:44:30;1.27;;;0.90;;
3133;SDS011;1577;49.912;10.924;2022-07-19T10:46:56;2.03;;;1.10;;
3133;SDS011;1577;49.912;10.924;2022-07-19T10:49:44;2.80;;;1.30;;
3133;SDS011;1577;49.912;10.924;2022-07-19T10:57:39;1.83;;;1.30;;
3133;SDS011;1577;49.912;10.924;2022-07-19T11:00:22;2.40;;;1.00;;
3133;SDS011;1577;49.912;10.924;2022-07-19T11:02:48;3.27;;;1.17;;
3133;SDS011;1577;49.912;10.924;2022-07-19T11:07:50;1.43;;;1.13;;
3133;SDS011;1577;49.912;10.924;2022-07-19T11:12:49;3.10;;;1.30;;
3133;SDS011;1577;49.912;10.924;2022-07-19T11:15:15;3.17;;;1.10;;
3133;SDS011;1577;49.912;10.924;2022-07-19T11:17:54;2.33;;;1.50;;
3133;SDS011;1577;49.912;10.924;2022-07-19T11:20:22;2.20;;;1.40;;
3133;SDS011;1577;49.912;10.924;2022-07-19T11:22:48;1.73;;;1.17;;
3133;SDS011;1577;49.912;10.924;2022-07-19T11:25:15;3.87;;;1.20;;
3133;SDS011;1577;49.912;10.924;2022-07-19T11:27:42;1.20;;;1.00;;
3133;SDS011;1577;49.912;10.924;2022-07-19T11:30:08;2.13;;;1.43;;
3133;SDS011;1577;49.912;10.924;2022-07-19T11:32:35;3.00;;;1.70;;
3133;SDS011;1577;49.912;10.924;2022-07-19T11:35:05;3.83;;;1.50;;
3133;SDS011;1577;49.912;10.924;2022-07-19T11:37:32;2.43;;;1.50;;
3133;SDS011;1577;49.912;10.924;2022-07-19T11:39:58;1.30;;;1.20;;
3133;SDS011;1577;49.912;10.924;2022-07-19T11:42:28;5.13;;;1.70;;
3133;SDS011;1577;49.912;10.924;2022-07-19T11:44:54;1.40;;;1.23;;
3133;SDS011;1577;49.912;10.924;2022-07-19T11:47:20;1.60;;;1.20;;
3133;SDS011;1577;49.912;10.924;2022-07-19T11:49:47;6.40;;;1.60;;
3133;SDS011;1577;49.912;10.924;2022-07-19T11:52:13;2.17;;;1.30;;
3133;SDS011;1577;49.912;10.924;2022-07-19T11:54:39;2.13;;;1.40;;
3133;SDS011;1577;49.912;10.924;2022-07-19T11:57:05;2.60;;;1.40;;
3133;SDS011;1577;49.912;10.924;2022-07-19T11:59:31;1.50;;;1.40;;
3133;SDS011;1577;49.912;10.924;2022-07-19T12:01:57;2.77;;;1.70;;
3133;SDS011;1577;49.912;10.924;2022-07-19T12:04:23;3.70;;;1.43;;
3133;SDS011;1577;49.912;10.924;2022-07-19T12:06:50;1.97;;;1.43;;
3133;SDS011;1577;49.912;10.924;2022-07-19T12:09:25;1.40;;;1.27;;
3133;SDS011;1577;49.912;10.924;2022-07-19T12:11:53;1.70;;;1.50;;
3133;SDS011;1577;49.912;10.924;2022-07-19T12:14:23;2.47;;;1.20;;
3133;SDS011;1577;49.912;10.924;2022-07-19T12:16:51;2.37;;;1.30;;
3133;SDS011;1577;49.912;10.924;2022-07-19T12:19:37;5.47;;;1.00;;
3133;SDS011;1577;49.912;10.924;2022-07-19T12:22:03;3.73;;;1.60;;
3133;SDS011;1577;49.912;10.924;2022-07-19T12:27:15;1.20;;;1.10;;
3133;SDS011;1577;49.912;10.924;2022-07-19T12:29:46;3.00;;;1.40;;
3133;SDS011;1577;49.912;10.924;2022-07-19T12:32:14;2.97;;;1.50;;
3133;SDS011;1577;49.912;10.924;2022-07-19T12:34:41;2.27;;;1.50;;
3133;SDS011;1577;49.912;10.924;2022-07-19T12:40:34;2.30;;;1.80;;
3133;SDS011;1577;49.912;10.924;2022-07-19T12:42:59;2.50;;;1.60;;
3133;SDS011;1577;49.912;10.924;2022-07-19T12:45:38;2.67;;;1.50;;
3133;SDS011;1577;49.912;10.924;2022-07-19T12:48:06;1.70;;;1.60;;
3133;SDS011;1577;49.912;10.924;2022-07-19T12:53:00;1.73;;;1.43;;
3133;SDS011;1577;49.912;10.924;2022-07-19T12:55:27;2.83;;;1.40;;
3133;SDS011;1577;49.912;10.924;2022-07-19T12:57:54;5.83;;;1.63;;
3133;SDS011;1577;49.912;10.924;2022-07-19T13:00:21;2.10;;;1.43;;
3133;SDS011;1577;49.912;10.924;2022-07-19T13:02:47;2.07;;;1.60;;
3133;SDS011;1577;49.912;10.924;2022-07-19T13:05:14;3.30;;;1.63;;
3133;SDS011;1577;49.912;10.924;2022-07-19T13:07:40;3.87;;;1.43;;
3133;SDS011;1577;49.912;10.924;2022-07-19T13:10:07;2.63;;;1.50;;
3133;SDS011;1577;49.912;10.924;2022-07-19T13:12:33;2.00;;;1.47;;
3133;SDS011;1577;49.912;10.924;2022-07-19T13:15:00;2.20;;;1.70;;
3133;SDS011;1577;49.912;10.924;2022-07-19T13:17:26;2.33;;;1.57;;
3133;SDS011;1577;49.912;10.924;2022-07-19T13:19:52;1.77;;;1.50;;
3133;SDS011;1577;49.912;10.924;2022-07-19T13:22:18;2.13;;;1.50;;
3133;SDS011;1577;49.912;10.924;2022-07-19T13:24:44;4.40;;;1.93;;
3133;SDS011;1577;49.912;10.924;2022-07-19T13:27:10;3.00;;;1.77;;
3133;SDS011;1577;49.912;10.924;2022-07-19T13:29:36;2.60;;;1.33;;
3133;SDS011;1577;49.912;10.924;2022-07-19T13:32:03;4.43;;;1.67;;
3133;SDS011;1577;49.912;10.924;2022-07-19T13:34:30;3.20;;;1.63;;
3133;SDS011;1577;49.912;10.924;2022-07-19T13:36:56;2.00;;;1.43;;
3133;SDS011;1577;49.912;10.924;2022-07-19T13:39:22;6.03;;;1.80;;
3133;SDS011;1577;49.912;10.924;2022-07-19T13:41:48;3.47;;;1.50;;
3133;SDS011;1577;49.912;10.924;2022-07-19T13:44:15;4.13;;;1.40;;
3133;SDS011;1577;49.912;10.924;2022-07-19T13:46:41;1.93;;;1.60;;
3133;SDS011;1577;49.912;10.924;2022-07-19T13:49:07;2.23;;;1.33;;
3133;SDS011;1577;49.912;10.924;2022-07-19T13:51:33;1.77;;;1.43;;
3133;SDS011;1577;49.912;10.924;2022-07-19T13:53:59;2.43;;;1.70;;
3133;SDS011;1577;49.912;10.924;2022-07-19T13:56:25;1.93;;;1.60;;
3133;SDS011;1577;49.912;10.924;2022-07-19T13:58:51;1.97;;;1.63;;
3133;SDS011;1577;49.912;10.924;2022-07-19T14:01:18;3.77;;;1.60;;
3133;SDS011;1577;49.912;10.924;2022-07-19T14:03:44;3.50;;;1.90;;
3133;SDS011;1577;49.912;10.924;2022-07-19T14:06:12;2.37;;;1.40;;
3133;SDS011;1577;49.912;10.924;2022-07-19T14:08:38;2.90;;;1.70;;
3133;SDS011;1577;49.912;10.924;2022-07-19T14:11:04;2.70;;;1.60;;
3133;SDS011;1577;49.912;10.924;2022-07-19T14:13:30;1.63;;;1.40;;
3133;SDS011;1577;49.912;10.924;2022-07-19T14:15:56;2.00;;;1.70;;
3133;SDS011;1577;49.912;10.924;2022-07-19T14:18:22;2.80;;;1.57;;
3133;SDS011;1577;49.912;10.924;2022-07-19T14:20:48;2.00;;;1.70;;
3133;SDS011;1577;49.912;10.924;2022-07-19T14:23:14;2.30;;;1.80;;
3133;SDS011;1577;49.912;10.924;2022-07-19T14:25:40;2.70;;;1.60;;
3133;SDS011;1577;49.912;10.924;2022-07-19T14:28:07;3.17;;;1.60;;
3133;SDS011;1577;49.912;10.924;2022-07-19T14:30:33;4.30;;;1.77;;
3133;SDS011;1577;49.912;10.924;2022-07-19T14:32:59;3.70;;;1.70;;
3133;SDS011;1577;49.912;10.924;2022-07-19T14:35:25;3.03;;;1.60;;
3133;SDS011;1577;49.912;10.924;2022-07-19T14:37:51;6.50;;;1.90;;
3133;SDS011;1577;49.912;10.924;2022-07-19T14:40:17;2.67;;;1.50;;
3133;SDS011;1577;49.912;10.924;2022-07-19T14:42:43;2.57;;;1.60;;
3133;SDS011;1577;49.912;10.924;2022-07-19T14:45:09;2.07;;;1.47;;
3133;SDS011;1577;49.912;10.924;2022-07-19T14:47:36;2.87;;;2.30;;
3133;SDS011;1577;49.912;10.924;2022-07-19T14:50:02;1.77;;;1.53;;
3133;SDS011;1577;49.912;10.924;2022-07-19T14:52:29;2.23;;;2.03;;
3133;SDS011;1577;49.912;10.924;2022-07-19T14:54:55;3.30;;;1.77;;
3133;SDS011;1577;49.912;10.924;2022-07-19T14:57:21;2.13;;;1.83;;
3133;SDS011;1577;49.912;10.924;2022-07-19T14:59:47;1.93;;;1.70;;
3133;SDS011;1577;49.912;10.924;2022-07-19T15:02:14;2.43;;;1.90;;
3133;SDS011;1577;49.912;10.924;2022-07-19T15:04:40;3.00;;;1.47;;
3133;SDS011;1577;49.912;10.924;2022-07-19T15:07:06;5.63;;;1.90;;
3133;SDS011;1577;49.912;10.924;2022-07-19T15:09:32;4.63;;;1.80;;
3133;SDS011;1577;49.912;10.924;2022-07-19T15:11:59;2.40;;;1.57;;
3133;SDS011;1577;49.912;10.924;2022-07-19T15:14:28;3.90;;;1.73;;
3133;SDS011;1577;49.912;10.924;2022-07-19T15:16:58;1.63;;;1.53;;
3133;SDS011;1577;49.912;10.924;2022-07-19T15:19:24;2.00;;;1.90;;
3133;SDS011;1577;49.912;10.924;2022-07-19T15:21:50;2.20;;;1.90;;